Flight Track Log - Related Links

Times and Time Zones

All times are in EDT time to prevent confusion due to time zone crossing. See the AAL34 flight status page for this flight to view local times or setup timezone preferences in your user account.

Time Position Orientation Groundspeed Altitude Reporting Facility
EDT Latitude Longitude Course Direction KTS MPH feet Rate Location/Type
Sat 05:53:17 PM 40.6833 -74.2667 303° West 266 306 4,600  Level New York TRACON
Sat 05:54:17 PM 40.7667 -74.2333 17° North 303 349 6,000 700 Climbing New York TRACON
Sat 05:55:17 PM 40.8333 -74.2167 11° North 289 333 6,000  Level New York TRACON
Sat 05:56:17 PM 40.9167 -74.2000 North 292 336 6,000  Level New York TRACON
Sat 05:57:00 PM 40.6622 -73.9434 180° South  Level Estimated
Sat 05:57:17 PM 41.0000 -74.1500 24° Northeast 301 346 6,000  Level New York TRACON
Sat 05:58:17 PM 41.0333 -74.0667 62° Northeast 303 349 6,000  Level New York TRACON
Sat 05:59:11 PM 41.0833 -73.9833 51° Northeast 299 344 6,000  Level New York TRACON
Sat 06:00:11 PM 41.1167 -73.9000 62° Northeast 297 342 6,000  Level New York TRACON
Sat 06:01:11 PM 41.1667 -73.8000 56° Northeast 302 348 6,000 -476 Level New York TRACON
Sat 06:02:17 PM 41.2167 -73.7000 56° Northeast 291 335 5,000 -476 Descending New York TRACON
Sat 06:03:17 PM 41.2667 -73.6167 51° Northeast 290 334 5,000  Level New York TRACON
Sat 06:04:17 PM 41.3000 -73.5333 62° Northeast 295 339 5,000  Level New York TRACON
Sat 06:05:17 PM 41.2833 -73.4333 102° East 279 321 5,000  Level New York TRACON
Sat 06:06:17 PM 41.2333 -73.3500 129° Southeast 279 321 5,000 -150 Level New York TRACON
Sat 06:07:17 PM 41.1833 -73.2833 135° Southeast 273 314 4,700 -500 Descending New York TRACON
Sat 06:08:17 PM 41.1167 -73.2833 180° South 250 288 4,000 -368 Descending New York TRACON
Sat 06:09:11 PM 41.0500 -73.2833 180° South 255 293 4,000  Level New York TRACON
Sat 06:10:17 PM 40.9833 -73.2833 180° South 255 293 4,000  Level New York TRACON
Sat 06:11:17 PM 40.9167 -73.3000 191° South 249 287 4,000  Level New York TRACON
Sat 06:12:17 PM 40.8833 -73.3833 242° Southwest 227 261 4,000 -400 Level New York TRACON
Sat 06:13:17 PM 40.8667 -73.4667 255° West 206 237 3,200 -550 Descending New York TRACON
Sat 06:14:17 PM 40.8500 -73.5167 246° West 166 191 2,900 -626 Descending New York TRACON
Sat 06:15:12 PM 40.8333 -73.5667 246° West 167 192 2,000 -450 Descending New York TRACON
Sat 06:16:17 PM 40.8167 -73.6167 246° West 171 197 2,000  Level New York TRACON
Sat 06:17:11 PM 40.7667 -73.6500 207° Southwest 177 204 2,000 -52 Level New York TRACON
Sat 06:18:12 PM 40.7333 -73.6833 217° Southwest 174 200 1,900 -446 Descending New York TRACON
Sat 06:19:12 PM 40.7000 -73.7167 217° Southwest 140 161 1,100 -800 Descending New York TRACON

Login

Don't have an account? Register now (free) for customized features, flight alerts, and more!